Time;durP1;ratioP1;P1;durP2;ratioP2;P2;SDS_P1;SDS_P2;PMS_P1;PMS_P2;Temp;Humidity;BMP_temperature;BMP_pressure;BME280_temperature;BME280_humidity;BME280_pressure;Samples;Min_cycle;Max_cycle;Signal;HPM_P1;HPM_P2
2021/10/08 00:00:00;;;;;;;41.63;18.20;;;;;;;8.07;86.91;102766.00;5018154;28;20037;-74
2021/10/08 00:02:39;;;;;;;47.20;17.48;;;;;;;8.04;87.05;102763.56;5026153;28;20105;-74
2021/10/08 00:05:04;;;;;;;49.42;18.83;;;;;;;8.02;87.42;102765.41;4995441;28;20669;-74
2021/10/08 00:07:30;;;;;;;38.05;17.33;;;;;;;8.02;87.75;102763.66;5008355;28;20079;-75
2021/10/08 00:09:55;;;;;;;48.42;19.33;;;;;;;7.99;87.83;102769.84;5011457;28;20112;-74
2021/10/08 00:12:21;;;;;;;38.78;17.73;;;;;;;8.00;87.80;102768.09;5012211;28;20034;-75
2021/10/08 00:14:46;;;;;;;35.95;16.50;;;;;;;8.00;87.99;102765.50;5023107;28;20497;-75
2021/10/08 00:17:12;;;;;;;32.47;16.05;;;;;;;8.01;87.88;102768.94;5010726;28;20041;-75
2021/10/08 00:19:37;;;;;;;34.17;16.08;;;;;;;8.03;87.94;102760.16;5014980;28;20030;-75
2021/10/08 00:22:03;;;;;;;25.98;14.27;;;;;;;8.06;87.99;102765.16;5018664;28;20037;-75
2021/10/08 00:24:29;;;;;;;23.67;14.07;;;;;;;8.07;87.97;102760.81;5016199;28;20129;-75
2021/10/08 00:26:55;;;;;;;25.40;13.73;;;;;;;8.06;87.79;102769.47;5019538;28;20029;-75
2021/10/08 00:29:21;;;;;;;28.77;15.02;;;;;;;7.99;87.63;102772.44;4996759;28;20064;-74
2021/10/08 00:31:46;;;;;;;32.63;14.68;;;;;;;7.89;87.38;102767.91;5011268;28;20037;-75
2021/10/08 00:34:12;;;;;;;24.10;12.27;;;;;;;7.83;87.55;102776.00;5009971;28;20042;-75
2021/10/08 00:36:38;;;;;;;26.30;13.10;;;;;;;7.77;87.54;102778.03;5007940;28;20503;-75
2021/10/08 00:39:04;;;;;;;25.38;12.80;;;;;;;7.71;87.71;102777.56;5005504;28;20210;-74
2021/10/08 00:41:30;;;;;;;24.38;13.55;;;;;;;7.67;87.16;102774.31;5021763;28;20021;-75
2021/10/08 00:43:56;;;;;;;26.35;12.38;;;;;;;7.65;87.27;102780.47;5008602;28;20045;-75
2021/10/08 00:46:21;;;;;;;23.63;12.65;;;;;;;7.66;86.88;102777.00;4998231;28;20026;-75
2021/10/08 00:48:52;;;;;;;21.02;11.82;;;;;;;7.64;86.78;102776.25;5014705;28;20072;-75
2021/10/08 00:51:19;;;;;;;23.85;12.85;;;;;;;7.63;86.52;102778.00;5004096;28;20482;-75
2021/10/08 00:53:45;;;;;;;28.55;12.85;;;;;;;7.62;86.51;102781.50;5011806;28;20113;-75
2021/10/08 00:56:11;;;;;;;28.65;12.40;;;;;;;7.63;86.36;102787.47;5016340;28;20529;-75
2021/10/08 00:58:41;;;;;;;28.70;13.57;;;;;;;7.62;85.72;102785.84;5013263;28;20022;-75
2021/10/08 01:01:07;;;;;;;26.67;12.48;;;;;;;7.55;86.13;102786.19;5015877;28;20382;-75
2021/10/08 01:03:33;;;;;;;21.13;11.70;;;;;;;7.54;85.79;102787.09;5012166;28;20036;-75
2021/10/08 01:05:59;;;;;;;23.15;11.73;;;;;;;7.53;85.90;102792.34;5010857;28;20091;-76
2021/10/08 01:08:25;;;;;;;22.42;12.02;;;;;;;7.49;85.72;102785.69;5014721;28;20022;-75
2021/10/08 01:10:51;;;;;;;23.98;11.65;;;;;;;7.44;85.66;102782.53;5009635;28;20107;-76
2021/10/08 01:13:18;;;;;;;27.10;11.80;;;;;;;7.38;85.89;102781.13;5006882;28;20030;-76
2021/10/08 01:15:45;;;;;;;22.63;11.82;;;;;;;7.34;86.45;102777.06;5013181;28;20037;-76
2021/10/08 01:18:11;;;;;;;27.45;12.93;;;;;;;7.28;86.93;102787.75;5012603;28;20124;-76
2021/10/08 01:20:37;;;;;;;21.90;12.02;;;;;;;7.27;87.24;102781.78;5010943;28;20506;-76
2021/10/08 01:23:14;;;;;;;18.77;11.25;;;;;;;7.25;87.29;102783.56;5016272;28;20072;-75
2021/10/08 01:25:49;;;;;;;21.13;11.23;;;;;;;7.23;87.43;102780.25;4995813;28;20053;-76
2021/10/08 01:28:15;;;;;;;22.17;12.15;;;;;;;7.18;88.03;102777.94;5014990;28;20033;-76
2021/10/08 01:30:43;;;;;;;20.52;11.38;;;;;;;7.15;87.76;102778.09;5013423;28;20395;-76
2021/10/08 01:33:10;;;;;;;22.75;12.80;;;;;;;7.13;87.82;102790.25;5025016;28;20564;-76
2021/10/08 01:35:39;;;;;;;18.98;10.88;;;;;;;7.12;88.17;102785.19;5011862;28;20041;-76
2021/10/08 01:38:05;;;;;;;17.50;10.77;;;;;;;7.15;88.22;102785.84;5010077;28;20087;-75
2021/10/08 01:40:32;;;;;;;15.07;10.18;;;;;;;7.18;87.96;102783.09;5011147;28;20026;-75
2021/10/08 01:43:11;;;;;;;19.85;11.30;;;;;;;7.19;87.71;102776.19;5017708;28;20450;-76
2021/10/08 01:45:37;;;;;;;18.73;11.38;;;;;;;7.12;87.60;102782.59;5014801;28;20033;-76
2021/10/08 01:48:03;;;;;;;14.82;10.02;;;;;;;7.03;87.21;102778.78;5013664;28;20795;-76
2021/10/08 01:50:30;;;;;;;17.75;10.38;;;;;;;6.99;87.29;102782.47;5008817;28;20064;-76
2021/10/08 01:52:58;;;;;;;18.38;10.55;;;;;;;6.92;87.22;102779.38;4995609;28;20029;-76
2021/10/08 01:55:24;;;;;;;16.70;10.35;;;;;;;6.89;87.60;102778.72;5011923;28;20454;-76
2021/10/08 01:57:56;;;;;;;14.30;9.13;;;;;;;6.92;87.22;102783.72;5006163;28;20491;-76
2021/10/08 02:00:24;;;;;;;19.33;10.48;;;;;;;6.92;87.27;102783.72;4995004;28;20048;-76
2021/10/08 02:03:00;;;;;;;14.02;9.15;;;;;;;6.95;86.86;102783.53;5019940;28;20045;-77
2021/10/08 02:05:25;;;;;;;19.13;10.52;;;;;;;6.93;86.42;102786.22;5011827;28;20030;-76
2021/10/08 02:07:52;;;;;;;13.95;9.63;;;;;;;6.90;86.53;102785.53;5012073;28;20112;-76
2021/10/08 02:10:23;;;;;;;15.98;9.40;;;;;;;6.83;86.60;102783.28;4995526;28;20034;-76
2021/10/08 02:12:49;;;;;;;15.23;8.73;;;;;;;6.81;86.16;102785.09;5010297;28;20037;-76
2021/10/08 02:15:15;;;;;;;16.67;9.73;;;;;;;6.76;86.05;102787.13;5010774;28;20144;-75
2021/10/08 02:17:41;;;;;;;22.08;9.73;;;;;;;6.75;86.14;102784.63;5009662;28;20049;-76
2021/10/08 02:20:07;;;;;;;22.73;9.93;;;;;;;6.73;85.63;102781.28;5013085;28;20029;-76
2021/10/08 02:22:36;;;;;;;16.17;10.20;;;;;;;6.63;85.40;102784.38;5010452;28;20041;-76
2021/10/08 02:25:04;;;;;;;15.85;9.57;;;;;;;6.59;85.27;102789.75;5005148;28;20133;-76
2021/10/08 02:27:30;;;;;;;15.60;9.23;;;;;;;6.55;85.42;102793.41;5009732;28;20033;-76
2021/10/08 02:29:55;;;;;;;15.02;9.00;;;;;;;6.48;85.52;102792.06;5011247;28;20498;-76
2021/10/08 02:32:23;;;;;;;15.10;8.93;;;;;;;6.46;85.45;102789.59;5013679;28;20034;-76
2021/10/08 02:34:49;;;;;;;16.33;9.55;;;;;;;6.43;85.83;102784.59;5007855;28;20343;-76
2021/10/08 02:37:15;;;;;;;15.25;10.02;;;;;;;6.41;86.02;102786.41;5012735;28;20036;-76
2021/10/08 02:39:41;;;;;;;18.48;10.38;;;;;;;6.40;86.07;102789.88;5010921;28;20041;-76
2021/10/08 02:42:08;;;;;;;17.55;10.02;;;;;;;6.36;85.97;102791.78;5015719;28;20036;-76
2021/10/08 02:44:35;;;;;;;20.65;10.35;;;;;;;6.38;86.46;102789.13;5012954;28;20034;-76
2021/10/08 02:47:00;;;;;;;16.90;10.25;;;;;;;6.41;86.41;102786.41;5012578;28;20045;-76
2021/10/08 02:49:26;;;;;;;17.10;10.55;;;;;;;6.38;86.11;102787.38;5010473;28;20037;-76
2021/10/08 02:51:54;;;;;;;21.08;9.43;;;;;;;6.41;86.37;102783.84;5009447;28;20041;-76
2021/10/08 02:54:20;;;;;;;16.95;10.20;;;;;;;6.42;85.86;102783.75;5016190;28;20030;-76
2021/10/08 02:56:45;;;;;;;18.25;10.02;;;;;;;6.43;85.80;102787.97;5013447;28;20041;-76
2021/10/08 02:59:11;;;;;;;18.60;9.68;;;;;;;6.43;85.96;102774.28;5015733;28;20039;-76
2021/10/08 03:01:37;;;;;;;21.65;10.93;;;;;;;6.38;85.67;102784.81;5012540;28;20540;-76
2021/10/08 03:04:04;;;;;;;16.63;10.20;;;;;;;6.38;85.92;102777.06;5006200;28;20414;-77
2021/10/08 03:06:31;;;;;;;16.08;9.63;;;;;;;6.41;85.83;102776.09;5016140;28;20475;-76
2021/10/08 03:08:57;;;;;;;23.38;10.88;;;;;;;6.42;86.00;102777.75;5015025;28;20041;-76
2021/10/08 03:11:25;;;;;;;19.90;10.27;;;;;;;6.41;85.97;102776.94;5017387;28;20018;-76
2021/10/08 03:13:50;;;;;;;17.45;10.60;;;;;;;6.41;85.89;102784.66;5018746;28;20132;-76
2021/10/08 03:16:16;;;;;;;18.88;9.98;;;;;;;6.39;86.38;102781.31;5015594;28;20500;-76
2021/10/08 03:18:41;;;;;;;17.85;10.30;;;;;;;6.35;86.36;102781.59;5017827;28;20474;-76
2021/10/08 03:21:07;;;;;;;16.10;9.57;;;;;;;6.31;86.38;102777.47;5016908;28;20041;-76
2021/10/08 03:23:33;;;;;;;15.15;9.18;;;;;;;6.28;86.52;102782.81;5017497;28;20036;-76
2021/10/08 03:25:59;;;;;;;27.40;9.98;;;;;;;6.26;86.51;102777.72;5015627;28;20030;-76
2021/10/08 03:28:26;;;;;;;12.93;8.35;;;;;;;6.23;86.38;102781.31;5017199;28;20120;-76
2021/10/08 03:30:52;;;;;;;18.27;9.25;;;;;;;6.22;86.70;102779.63;5011976;28;20130;-76
2021/10/08 03:33:17;;;;;;;13.35;9.13;;;;;;;6.16;86.24;102779.94;5013212;28;20379;-76
2021/10/08 03:35:44;;;;;;;15.23;7.95;;;;;;;6.09;86.17;102778.59;5009236;28;20034;-76
2021/10/08 03:38:20;;;;;;;14.52;8.18;;;;;;;6.01;85.74;102776.41;5022075;28;20041;-76
2021/10/08 03:43:28;;;;;;;13.73;8.48;;;;;;;5.90;85.77;102778.66;5004993;28;20095;-76
2021/10/08 03:45:54;;;;;;;11.93;7.80;;;;;;;5.86;85.85;102782.31;5014399;28;20029;-76
2021/10/08 03:50:47;;;;;;;11.75;7.88;;;;;;;5.78;85.91;102789.56;5015118;28;20042;-76
2021/10/08 03:53:13;;;;;;;12.27;8.05;;;;;;;5.77;86.04;102781.03;5016075;28;20029;-76
2021/10/08 03:55:38;;;;;;;13.75;8.70;;;;;;;5.75;85.76;102784.59;5012675;28;20034;-76
2021/10/08 03:58:04;;;;;;;14.10;8.23;;;;;;;5.74;85.65;102781.16;5024117;28;20038;-76
2021/10/08 04:00:30;;;;;;;14.60;7.72;;;;;;;5.75;85.62;102785.41;5011494;28;20036;-76
2021/10/08 04:03:06;;;;;;;17.50;8.13;;;;;;;5.78;86.00;102787.00;5018111;28;20487;-76
2021/10/08 04:05:32;;;;;;;15.60;8.55;;;;;;;5.76;85.86;102784.47;5007899;28;20365;-76
2021/10/08 04:07:58;;;;;;;19.20;7.95;;;;;;;5.71;85.86;102791.63;5011587;28;20106;-76
2021/10/08 04:10:26;;;;;;;20.20;9.23;;;;;;;5.66;85.66;102789.25;5014485;28;20036;-76
2021/10/08 04:12:52;;;;;;;13.23;8.55;;;;;;;5.64;85.59;102798.81;5022102;28;20040;-76
2021/10/08 04:15:18;;;;;;;13.15;8.50;;;;;;;5.61;85.67;102795.53;5010522;28;20038;-76
2021/10/08 04:17:45;;;;;;;15.75;9.20;;;;;;;5.60;85.96;102799.88;5010107;28;20033;-76
2021/10/08 04:20:11;;;;;;;16.15;9.95;;;;;;;5.63;86.13;102798.88;5008462;28;20052;-76
2021/10/08 04:22:36;;;;;;;17.52;9.45;;;;;;;5.63;86.30;102802.31;5019791;28;20025;-76
2021/10/08 04:25:04;;;;;;;15.73;9.23;;;;;;;5.66;85.68;102796.97;5013291;28;20528;-76
2021/10/08 04:27:30;;;;;;;17.63;9.98;;;;;;;5.68;85.41;102803.81;5021669;28;20033;-76
2021/10/08 04:29:58;;;;;;;12.80;8.90;;;;;;;5.63;85.82;102804.03;5011537;28;20025;-76
2021/10/08 04:32:23;;;;;;;21.15;9.90;;;;;;;5.58;85.98;102809.41;4994089;28;20022;-75
2021/10/08 04:34:49;;;;;;;17.98;10.93;;;;;;;5.57;86.18;102812.03;5010034;28;20032;-76
2021/10/08 04:37:15;;;;;;;19.88;11.20;;;;;;;5.56;85.99;102813.78;5024746;28;20075;-76
2021/10/08 04:39:41;;;;;;;22.33;11.82;;;;;;;5.55;86.58;102804.41;5009446;28;20037;-77
2021/10/08 04:42:06;;;;;;;23.08;13.10;;;;;;;5.53;86.11;102807.97;5013901;28;20026;-76
2021/10/08 04:44:33;;;;;;;29.77;13.30;;;;;;;5.52;86.52;102806.28;4990853;28;20522;-76
2021/10/08 04:47:00;;;;;;;22.40;12.55;;;;;;;5.48;86.88;102808.16;5030554;28;20631;-77
2021/10/08 04:49:26;;;;;;;24.33;12.30;;;;;;;5.44;87.38;102807.50;4994704;28;20033;-77
2021/10/08 04:51:51;;;;;;;25.58;12.45;;;;;;;5.40;87.99;102805.97;5008319;28;20034;-78
2021/10/08 04:54:17;;;;;;;24.05;12.35;;;;;;;5.36;88.02;102807.03;4992962;28;20026;-77
2021/10/08 04:56:45;;;;;;;23.15;11.35;;;;;;;5.38;87.98;102815.50;5008999;28;20037;-77
2021/10/08 04:59:11;;;;;;;22.48;12.35;;;;;;;5.40;87.73;102813.69;5010439;28;20065;-77
2021/10/08 05:01:36;;;;;;;27.05;12.48;;;;;;;5.41;87.99;102801.66;4994565;28;20037;-77
2021/10/08 05:04:02;;;;;;;20.13;10.60;;;;;;;5.42;88.12;102811.88;5014826;28;20473;-78
2021/10/08 05:06:30;;;;;;;21.83;11.85;;;;;;;5.43;88.10;102808.41;5010543;28;20117;-77
2021/10/08 05:08:57;;;;;;;20.20;11.52;;;;;;;5.41;88.09;102804.25;5013115;28;20125;-76
2021/10/08 05:11:23;;;;;;;24.98;12.57;;;;;;;5.41;87.99;102801.66;5015500;28;20026;-77
2021/10/08 05:13:49;;;;;;;20.27;11.60;;;;;;;5.42;89.18;102811.03;5024780;28;20033;-77
2021/10/08 05:16:15;;;;;;;22.85;11.27;;;;;;;5.42;88.55;102811.03;5017179;28;20063;-76
2021/10/08 05:18:41;;;;;;;21.38;11.13;;;;;;;5.40;88.87;102812.84;5014903;28;20041;-77
2021/10/08 05:21:09;;;;;;;17.05;10.18;;;;;;;5.40;89.06;102812.84;5007142;28;20056;-77
2021/10/08 05:23:34;;;;;;;22.10;12.35;;;;;;;5.38;88.96;102810.34;4992020;28;20026;-77
2021/10/08 05:26:00;;;;;;;23.85;11.43;;;;;;;5.39;89.21;102821.50;5008582;28;20525;-77
2021/10/08 05:28:26;;;;;;;22.50;10.65;;;;;;;5.36;89.61;102824.19;5012569;28;20053;-77
2021/10/08 05:30:54;;;;;;;20.45;11.10;;;;;;;5.38;90.05;102827.53;4990740;28;20044;-77
2021/10/08 05:33:20;;;;;;;21.67;10.80;;;;;;;5.34;90.27;102826.84;5002046;28;20037;-77
2021/10/08 05:35:47;;;;;;;21.58;11.02;;;;;;;5.34;90.07;102823.44;5008511;28;20033;-78
2021/10/08 05:38:13;;;;;;;17.95;10.32;;;;;;;5.34;90.12;102824.28;5008378;28;20026;-77
2021/10/08 05:40:38;;;;;;;21.10;10.18;;;;;;;5.34;90.14;102826.84;5007257;28;20034;-77
2021/10/08 05:43:04;;;;;;;17.33;9.02;;;;;;;5.34;90.18;102826.84;5021616;28;20041;-77
2021/10/08 05:45:34;;;;;;;17.50;9.50;;;;;;;5.33;90.27;102826.91;5003832;28;20034;-78
2021/10/08 05:47:59;;;;;;;16.83;10.30;;;;;;;5.34;89.81;102826.03;5006330;28;20044;-77
2021/10/08 05:50:25;;;;;;;16.10;9.32;;;;;;;5.33;89.78;102829.47;5005333;28;20037;-77
2021/10/08 05:52:51;;;;;;;15.48;8.40;;;;;;;5.33;89.89;102824.34;5007924;28;20034;-78
2021/10/08 05:55:16;;;;;;;20.00;10.45;;;;;;;5.32;89.55;102831.22;5005581;28;20092;-78
2021/10/08 05:57:42;;;;;;;15.80;8.30;;;;;;;5.34;90.02;102832.00;5005623;28;20403;-78
2021/10/08 06:00:08;;;;;;;16.65;9.35;;;;;;;5.35;90.06;102831.09;5008793;28;20088;-78
2021/10/08 06:02:40;;;;;;;15.27;8.37;;;;;;;5.40;89.73;102836.00;5016815;28;20042;-77
2021/10/08 06:05:07;;;;;;;22.05;9.70;;;;;;;5.42;89.63;102837.59;5008541;28;20838;-78
2021/10/08 06:07:33;;;;;;;15.98;7.95;;;;;;;5.44;89.59;102834.97;5011244;28;20052;-77
2021/10/08 06:09:59;;;;;;;18.30;8.88;;;;;;;5.41;89.18;102835.94;5008018;28;20040;-77
2021/10/08 06:12:25;;;;;;;29.13;9.32;;;;;;;5.42;89.47;102842.75;4994242;28;20406;-78
2021/10/08 06:14:51;;;;;;;20.73;10.27;;;;;;;5.43;89.11;102843.59;5002503;28;20079;-77
2021/10/08 06:17:17;;;;;;;19.00;8.63;;;;;;;5.47;89.30;102847.69;4990552;28;20033;-77
2021/10/08 06:19:43;;;;;;;16.92;9.00;;;;;;;5.52;89.44;102848.31;4989179;28;20034;-77
2021/10/08 06:22:09;;;;;;;17.85;9.43;;;;;;;5.55;89.25;102845.56;5014500;28;20530;-78
2021/10/08 06:24:36;;;;;;;18.05;9.10;;;;;;;5.56;89.17;102849.81;5009515;28;20041;-78
2021/10/08 06:27:04;;;;;;;20.20;9.13;;;;;;;5.57;89.46;102854.06;4997693;28;20021;-77
2021/10/08 06:29:29;;;;;;;16.55;8.20;;;;;;;5.57;90.04;102853.22;5011745;28;20034;-78
2021/10/08 06:31:55;;;;;;;18.17;9.25;;;;;;;5.59;89.80;102861.69;5005799;28;20593;-78
2021/10/08 06:34:21;;;;;;;18.88;10.35;;;;;;;5.62;89.91;102857.25;5008891;28;20033;-82
2021/10/08 06:36:48;;;;;;;19.98;10.07;;;;;;;5.67;90.36;102857.03;4996411;28;20032;-83
2021/10/08 06:39:13;;;;;;;18.45;9.82;;;;;;;5.72;90.52;102851.66;4994210;28;20037;-81
2021/10/08 06:41:39;;;;;;;18.95;9.07;;;;;;;5.81;90.67;102859.75;4991992;28;20433;-82
2021/10/08 06:44:14;;;;;;;21.98;11.15;;;;;;;5.91;90.95;102860.16;4994344;28;20029;-82
2021/10/08 06:46:40;;;;;;;23.00;10.98;;;;;;;6.01;90.57;102860.59;5004871;28;20072;-82
2021/10/08 06:49:06;;;;;;;30.67;13.68;;;;;;;6.12;90.79;102854.88;5010427;28;20059;-83
2021/10/08 06:51:34;;;;;;;32.03;13.77;;;;;;;6.21;90.53;102865.53;5005869;28;20458;-82
2021/10/08 06:54:00;;;;;;;31.63;14.20;;;;;;;6.30;90.71;102866.84;4996619;28;20099;-82
2021/10/08 06:56:26;;;;;;;32.63;14.32;;;;;;;6.40;90.73;102867.19;4982628;28;20414;-82
2021/10/08 06:59:03;;;;;;;32.70;15.52;;;;;;;6.55;90.58;102870.75;5021850;28;20034;-83
2021/10/08 07:01:30;;;;;;;30.15;13.90;;;;;;;6.74;90.03;102868.88;5005447;28;20041;-82
2021/10/08 07:03:56;;;;;;;38.47;14.80;;;;;;;6.98;89.53;102876.22;4988413;28;20027;-82
2021/10/08 07:06:22;;;;;;;30.38;13.75;;;;;;;7.20;89.07;102875.91;5011221;28;20438;-82
2021/10/08 07:08:56;;;;;;;27.65;12.63;;;;;;;7.49;88.22;102876.06;5008683;28;20084;-82
2021/10/08 07:11:22;;;;;;;22.60;11.95;;;;;;;7.75;87.58;102865.09;5016037;28;21405;-83
2021/10/08 07:13:50;;;;;;;26.55;12.70;;;;;;;8.03;86.59;102865.28;5010285;28;20406;-82
2021/10/08 07:16:16;;;;;;;22.63;11.73;;;;;;;8.33;85.70;102876.41;5012009;28;20033;-82
2021/10/08 07:18:49;;;;;;;20.98;10.82;;;;;;;8.76;84.49;102873.03;5006272;28;20092;-83
2021/10/08 07:21:14;;;;;;;26.52;12.23;;;;;;;9.25;82.97;102869.97;5013106;28;20467;-82
2021/10/08 07:23:44;;;;;;;20.30;11.60;;;;;;;9.66;80.70;102871.69;5004541;28;20073;-82
2021/10/08 07:26:09;;;;;;;21.00;10.68;;;;;;;10.18;79.14;102870.00;5010742;28;20038;-81
2021/10/08 07:28:35;;;;;;;19.35;10.23;;;;;;;10.64;76.59;102866.91;5007496;28;20038;-81
2021/10/08 07:31:00;;;;;;;17.40;9.85;;;;;;;11.03;74.70;102866.81;4994509;28;20478;-81
2021/10/08 07:33:26;;;;;;;15.13;9.43;;;;;;;11.47;73.46;102868.81;5005912;28;20371;-80
2021/10/08 07:35:51;;;;;;;15.02;8.35;;;;;;;11.74;72.55;102866.91;5010412;28;20274;-79
2021/10/08 07:38:17;;;;;;;13.18;8.10;;;;;;;11.99;71.69;102877.16;5010575;28;20037;-78
2021/10/08 07:40:42;;;;;;;20.63;10.98;;;;;;;12.07;70.77;102874.00;5012789;28;20029;-79
2021/10/08 07:43:08;;;;;;;15.07;9.65;;;;;;;12.36;70.90;102868.38;4991709;28;20038;-78
2021/10/08 07:45:34;;;;;;;13.73;8.25;;;;;;;12.56;69.16;102869.44;5004681;28;20399;-78
2021/10/08 07:47:59;;;;;;;15.40;8.73;;;;;;;12.64;70.13;102872.28;4988998;28;20038;-78
2021/10/08 07:50:24;;;;;;;16.60;10.07;;;;;;;12.96;68.95;102867.16;5008855;28;20018;-78
2021/10/08 07:52:50;;;;;;;14.13;8.75;;;;;;;13.15;68.04;102863.09;5006747;28;20038;-78
2021/10/08 07:55:15;;;;;;;14.23;8.95;;;;;;;13.42;67.82;102862.66;5014474;28;20041;-78
2021/10/08 07:57:41;;;;;;;16.52;9.00;;;;;;;13.67;67.73;102860.66;5008378;28;20041;-78
2021/10/08 08:00:09;;;;;;;21.98;10.25;;;;;;;13.81;66.30;102866.38;5016852;28;20037;-78
2021/10/08 08:02:41;;;;;;;25.55;13.05;;;;;;;14.02;67.29;102870.75;5012201;28;20030;-78
2021/10/08 08:05:07;;;;;;;14.30;9.13;;;;;;;14.13;66.93;102883.75;5012820;28;20029;-78
2021/10/08 08:07:32;;;;;;;17.17;9.00;;;;;;;14.29;65.67;102875.44;5008483;28;20034;-78
2021/10/08 08:09:58;;;;;;;13.98;9.15;;;;;;;14.43;64.81;102878.66;5011703;28;20033;-78
2021/10/08 08:12:24;;;;;;;15.75;8.98;;;;;;;14.72;64.52;102879.63;5009447;28;20034;-78
2021/10/08 08:14:49;;;;;;;19.50;8.90;;;;;;;15.01;64.28;102870.19;5012189;28;20038;-78
2021/10/08 08:17:14;;;;;;;17.23;9.05;;;;;;;15.28;63.69;102873.00;5010281;28;20072;-79
2021/10/08 08:19:42;;;;;;;15.68;9.65;;;;;;;15.23;63.83;102871.75;5014680;28;20034;-79
2021/10/08 08:22:08;;;;;;;23.35;9.55;;;;;;;15.65;62.31;102874.06;5011777;28;20334;-79
2021/10/08 08:24:35;;;;;;;15.50;9.15;;;;;;;15.88;62.19;102874.63;4991757;28;20045;-80
2021/10/08 08:27:18;;;;;;;13.73;8.23;;;;;;;15.67;63.16;102869.53;5013706;28;20513;-80
2021/10/08 08:29:44;;;;;;;16.33;8.85;;;;;;;15.87;62.61;102870.38;5011536;28;20330;-81
2021/10/08 08:32:09;;;;;;;15.20;8.13;;;;;;;16.18;61.67;102863.13;5009486;28;20105;-80
2021/10/08 08:34:35;;;;;;;14.55;8.80;;;;;;;16.22;60.88;102863.63;5008798;28;20025;-81
2021/10/08 08:37:01;;;;;;;30.48;15.73;;;;;;;16.31;62.12;102866.25;5014363;28;20141;-80
2021/10/08 08:39:27;;;;;;;21.15;11.30;;;;;;;16.37;61.59;102870.09;5007627;28;20172;-80
2021/10/08 08:41:53;;;;;;;16.02;8.60;;;;;;;16.55;60.96;102870.94;5006058;28;20110;-83
2021/10/08 08:44:18;;;;;;;13.30;8.05;;;;;;;16.66;61.22;102861.25;5007145;28;20038;-81
2021/10/08 08:46:44;;;;;;;21.33;9.43;;;;;;;16.60;61.01;102865.28;5007914;28;20030;-81
2021/10/08 08:49:10;;;;;;;18.30;8.93;;;;;;;16.83;59.71;102862.28;5008110;28;20474;-81
2021/10/08 08:51:35;;;;;;;14.20;8.65;;;;;;;16.73;60.74;102864.94;5006469;28;20037;-81
2021/10/08 08:54:03;;;;;;;29.40;17.63;;;;;;;16.54;61.23;102861.44;5014215;28;20133;-81
2021/10/08 08:56:29;;;;;;;18.58;12.10;;;;;;;16.59;62.60;102860.19;5007375;28;20038;-80
2021/10/08 08:59:05;;;;;;;17.80;9.15;;;;;;;16.63;62.11;102862.38;5004293;28;20029;-81
2021/10/08 09:01:31;;;;;;;23.17;10.52;;;;;;;16.35;62.15;102856.31;5012066;28;20038;-81
2021/10/08 09:04:06;;;;;;;19.17;10.82;;;;;;;16.12;63.40;102854.06;5014304;28;20040;-80
2021/10/08 09:06:34;;;;;;;16.70;9.88;;;;;;;15.93;64.04;102849.69;4992053;28;20041;-80
2021/10/08 09:09:14;;;;;;;18.58;9.18;;;;;;;15.89;64.40;102845.69;5007998;28;20049;-80
2021/10/08 09:11:39;;;;;;;17.73;8.50;;;;;;;15.64;63.38;102848.91;5003794;28;20656;-81
2021/10/08 09:14:19;;;;;;;15.07;8.90;;;;;;;15.34;66.39;102848.91;5008816;28;20068;-81
2021/10/08 09:17:19;;;;;;;19.17;9.82;;;;;;;14.97;66.35;102851.34;5007806;28;20046;-81
2021/10/08 09:19:55;;;;;;;19.10;9.75;;;;;;;15.04;66.80;102839.41;4990609;28;20038;-81
2021/10/08 09:22:26;;;;;;;15.73;9.70;;;;;;;14.96;65.54;102841.88;4994526;28;20479;-80
2021/10/08 09:24:53;;;;;;;18.38;9.73;;;;;;;15.12;65.79;102850.00;5015502;28;20507;-82
2021/10/08 09:27:22;;;;;;;17.33;8.90;;;;;;;15.04;67.81;102851.66;5011468;28;20056;-81
2021/10/08 09:29:54;;;;;;;15.85;9.40;;;;;;;15.13;67.50;102848.22;5015879;28;20032;-80
2021/10/08 09:32:22;;;;;;;17.60;9.20;;;;;;;15.04;68.76;102843.81;5015004;28;20037;-80
2021/10/08 09:34:49;;;;;;;20.02;9.68;;;;;;;14.90;67.51;102842.41;5010687;28;20036;-79
2021/10/08 09:37:16;;;;;;;17.38;10.32;;;;;;;14.93;68.13;102837.72;5007942;28;20124;-80
2021/10/08 09:39:45;;;;;;;16.08;9.43;;;;;;;14.96;68.15;102834.03;5012511;28;20049;-80
2021/10/08 09:42:12;;;;;;;15.73;8.90;;;;;;;15.09;67.54;102836.41;5009116;28;20129;-83
2021/10/08 09:44:50;;;;;;;16.58;9.85;;;;;;;14.99;68.41;102842.44;5020363;28;20618;-79
2021/10/08 09:47:16;;;;;;;20.35;11.10;;;;;;;15.23;69.19;102833.38;5006985;28;20449;-79
2021/10/08 09:49:44;;;;;;;20.15;9.60;;;;;;;15.11;69.43;102839.69;5008324;28;20254;-79
2021/10/08 09:52:25;;;;;;;15.90;8.75;;;;;;;15.06;69.85;102840.09;5008895;28;20045;-80
2021/10/08 09:54:54;;;;;;;16.83;9.65;;;;;;;15.23;70.48;102835.16;5013520;28;20029;-81
2021/10/08 09:57:21;;;;;;;19.20;11.50;;;;;;;15.16;69.72;102830.50;5001902;28;20034;-80
2021/10/08 09:59:51;;;;;;;18.30;9.05;;;;;;;15.16;69.44;102838.34;5016124;28;20081;-80
2021/10/08 10:02:18;;;;;;;18.20;10.10;;;;;;;15.27;69.99;102836.53;5016661;28;20044;-79
2021/10/08 10:04:49;;;;;;;24.52;12.95;;;;;;;15.26;69.66;102835.72;5007498;28;20355;-80
2021/10/08 10:07:19;;;;;;;23.75;11.38;;;;;;;15.20;69.95;102831.03;4991066;28;20486;-79
2021/10/08 10:09:47;;;;;;;20.50;11.15;;;;;;;15.42;68.30;102831.72;5032172;28;20033;-81
2021/10/08 10:12:15;;;;;;;19.13;10.68;;;;;;;15.45;68.67;102836.69;5013595;28;20017;-79
2021/10/08 10:14:43;;;;;;;24.98;10.68;;;;;;;15.53;67.27;102828.94;4991044;28;20497;-81
2021/10/08 10:17:09;;;;;;;20.00;10.68;;;;;;;15.59;67.71;102831.00;5020307;28;20037;-81
2021/10/08 10:19:39;;;;;;;21.35;11.30;;;;;;;15.52;68.00;102825.53;5013401;28;20099;-81
2021/10/08 10:22:05;;;;;;;16.70;10.23;;;;;;;15.72;67.17;102817.63;5013239;28;20108;-81
2021/10/08 10:24:31;;;;;;;18.65;10.98;;;;;;;15.88;65.97;102828.38;5021660;28;20065;-81
2021/10/08 10:26:57;;;;;;;24.40;11.45;;;;;;;15.75;65.82;102823.44;5012706;28;20442;-80
2021/10/08 10:29:23;;;;;;;17.15;10.23;;;;;;;15.86;66.27;102825.06;4995775;28;20025;-80
2021/10/08 10:31:49;;;;;;;20.70;10.68;;;;;;;16.05;66.03;102821.56;5020969;28;20459;-82
2021/10/08 10:34:15;;;;;;;23.05;11.30;;;;;;;16.01;65.57;102822.84;5027822;28;20281;-81
2021/10/08 10:36:42;;;;;;;23.95;11.18;;;;;;;15.80;66.58;102820.38;5018520;28;20041;-81
2021/10/08 10:39:11;;;;;;;19.25;10.43;;;;;;;15.97;67.03;102810.97;5017893;28;20109;-80
2021/10/08 10:41:37;;;;;;;18.85;9.52;;;;;;;16.06;64.96;102819.78;5011836;28;20073;-81
2021/10/08 10:44:22;;;;;;;12.18;6.80;;;;;;;16.12;61.87;102808.72;5013125;28;20029;-80
2021/10/08 10:47:01;;;;;;;10.82;5.78;;;;;;;16.45;61.34;102817.00;5011266;28;20256;-80
2021/10/08 10:49:39;;;;;;;14.38;6.00;;;;;;;16.38;63.52;102811.50;5014811;28;20265;-82
2021/10/08 10:52:08;;;;;;;21.67;9.75;;;;;;;16.42;64.39;102812.84;4997634;28;20044;-80
2021/10/08 10:54:37;;;;;;;11.30;6.47;;;;;;;16.42;62.10;102818.09;5007952;28;20394;-81
2021/10/08 10:57:04;;;;;;;10.15;5.30;;;;;;;16.60;59.67;102807.66;5003515;28;20092;-80
2021/10/08 10:59:32;;;;;;;9.23;5.75;;;;;;;16.69;60.35;102798.94;5015320;28;20109;-81
2021/10/08 11:02:06;;;;;;;10.70;6.22;;;;;;;16.67;59.01;102800.88;5015450;28;20042;-80
2021/10/08 11:04:36;;;;;;;7.13;4.90;;;;;;;16.46;59.45;102803.75;5012436;28;20049;-80
2021/10/08 11:07:07;;;;;;;10.30;5.05;;;;;;;16.53;62.14;102804.81;5012121;28;20082;-83
2021/10/08 11:09:33;;;;;;;9.27;5.78;;;;;;;16.58;61.53;102799.13;5004987;28;20045;-80
2021/10/08 11:12:33;;;;;;;18.83;6.38;;;;;;;16.49;60.08;102792.16;5009889;28;20030;-81
2021/10/08 11:15:16;;;;;;;7.45;4.53;;;;;;;16.57;60.44;102788.81;5006277;28;20045;-82
2021/10/08 11:17:48;;;;;;;9.73;4.43;;;;;;;16.67;59.94;102797.41;5000945;28;20156;-80
2021/10/08 11:20:29;;;;;;;6.70;4.35;;;;;;;16.75;59.86;102792.28;4987518;28;20724;-81
2021/10/08 11:23:01;;;;;;;6.63;4.65;;;;;;;16.77;57.70;102789.50;4989634;28;20101;-81
2021/10/08 11:25:28;;;;;;;10.05;5.18;;;;;;;16.89;57.37;102789.16;5013561;28;20052;-80